Time;durP1;ratioP1;P1;durP2;ratioP2;P2;SDS_P1;SDS_P2;PMS_P1;PMS_P2;Temp;Humidity;BMP_temperature;BMP_pressure;BME280_temperature;BME280_humidity;BME280_pressure;Samples;Min_cycle;Max_cycle;Signal;HPM_P1;HPM_P2
2022/06/08 00:00:20;;;;;;;3.03;2.47;;;;;;;20.93;50.59;101024.91;5107057;28;20023;-63
2022/06/08 00:02:49;;;;;;;3.53;2.55;;;;;;;20.93;50.54;101022.19;5072215;28;20036;-63
2022/06/08 00:05:15;;;;;;;2.72;2.50;;;;;;;20.87;50.75;101011.28;5106774;28;20032;-63
2022/06/08 00:07:40;;;;;;;2.22;2.05;;;;;;;20.92;50.31;101025.91;5106803;28;20094;-63
2022/06/08 00:10:07;;;;;;;3.13;2.30;;;;;;;20.93;50.60;101013.25;5113183;27;20095;-64
2022/06/08 00:12:32;;;;;;;3.20;2.90;;;;;;;20.92;50.51;101012.41;5147743;27;20044;-65
2022/06/08 00:14:58;;;;;;;3.30;2.60;;;;;;;20.92;50.62;101009.69;5147728;27;20075;-64
2022/06/08 00:17:23;;;;;;;2.90;2.58;;;;;;;20.93;50.43;101018.66;5147832;27;20105;-63
2022/06/08 00:19:48;;;;;;;2.75;2.55;;;;;;;20.83;50.50;100991.03;5147607;27;20042;-63
2022/06/08 00:22:14;;;;;;;2.65;2.38;;;;;;;20.91;50.77;101005.31;5144250;27;20082;-63
2022/06/08 00:24:39;;;;;;;4.72;3.00;;;;;;;20.92;50.60;101007.00;5108058;28;20027;-63
2022/06/08 00:27:05;;;;;;;3.22;2.60;;;;;;;20.92;50.73;101007.00;5124799;28;20042;-63
2022/06/08 00:29:31;;;;;;;3.65;2.47;;;;;;;20.89;50.66;100999.25;5127060;28;20473;-63
2022/06/08 00:31:56;;;;;;;3.75;3.10;;;;;;;20.90;50.82;101000.94;5127064;28;20023;-63
2022/06/08 00:34:22;;;;;;;3.15;2.63;;;;;;;20.91;50.79;100999.91;5126756;28;20030;-63
2022/06/08 00:36:47;;;;;;;3.72;3.00;;;;;;;20.91;50.54;100997.22;5108189;28;20031;-63
2022/06/08 00:39:12;;;;;;;2.72;2.50;;;;;;;20.89;50.66;100988.44;5126241;28;20019;-64
2022/06/08 00:41:42;;;;;;;2.90;2.60;;;;;;;20.91;50.63;100985.56;5126521;28;20035;-62
2022/06/08 00:44:28;;;;;;;2.58;2.13;;;;;;;20.84;50.53;100977.31;5126795;28;20411;-63
2022/06/08 00:46:53;;;;;;;2.80;2.47;;;;;;;20.89;50.54;100985.72;5108253;28;20028;-64
2022/06/08 00:49:24;;;;;;;4.93;2.65;;;;;;;20.89;50.56;100980.31;5108296;28;20034;-63
2022/06/08 00:51:49;;;;;;;4.97;2.90;;;;;;;20.89;50.60;100979.47;5091268;28;20460;-63
2022/06/08 00:54:21;;;;;;;2.67;2.30;;;;;;;20.89;50.53;100980.31;5089382;28;20468;-63
2022/06/08 00:56:51;;;;;;;2.25;1.98;;;;;;;20.88;50.44;100975.94;5087858;28;20024;-63
2022/06/08 00:59:16;;;;;;;3.78;2.72;;;;;;;20.87;50.42;100971.56;5106036;28;20097;-63
2022/06/08 01:01:42;;;;;;;3.20;2.65;;;;;;;20.78;50.47;100961.00;5105497;28;20028;-63
2022/06/08 01:04:07;;;;;;;3.63;2.85;;;;;;;20.88;50.20;100970.53;5116062;28;20035;-63
2022/06/08 01:06:33;;;;;;;2.75;2.50;;;;;;;20.86;50.77;100969.91;5118015;28;20107;-63
2022/06/08 01:08:59;;;;;;;2.67;2.42;;;;;;;20.82;50.79;100960.47;5105179;28;20071;-63
2022/06/08 01:11:38;;;;;;;3.60;2.75;;;;;;;20.87;50.47;100965.31;5118363;28;20108;-63
2022/06/08 01:14:07;;;;;;;3.03;2.72;;;;;;;20.87;50.63;100959.94;5126109;28;20048;-63
2022/06/08 01:16:32;;;;;;;;;;;;;;;20.86;50.52;100966.34;5108405;28;20027;-63
2022/06/08 01:18:58;;;;;;;2.88;2.45;;;;;;;20.85;50.46;100954.69;5121656;28;19908;-63
2022/06/08 01:21:24;;;;;;;3.00;2.70;;;;;;;20.85;50.55;100956.53;5105604;28;20057;-63
2022/06/08 01:24:01;;;;;;;2.78;2.40;;;;;;;20.84;50.83;100944.91;5105463;28;20066;-64
2022/06/08 01:26:41;;;;;;;3.20;2.55;;;;;;;20.85;50.67;100948.44;5087527;28;20028;-64
2022/06/08 01:29:11;;;;;;;2.40;2.20;;;;;;;20.79;50.62;100933.78;5105548;28;20075;-64
2022/06/08 01:31:36;;;;;;;2.97;2.42;;;;;;;20.84;50.65;100941.34;5105413;28;20032;-64
2022/06/08 01:34:12;;;;;;;3.17;2.75;;;;;;;20.84;50.46;100938.66;5105714;28;20032;-64
2022/06/08 01:36:53;;;;;;;3.20;2.60;;;;;;;20.83;50.47;100937.81;5096788;28;20023;-65
2022/06/08 01:40:12;;;;;;;2.80;2.50;;;;;;;20.82;50.42;100930.75;5090082;28;20033;-63
2022/06/08 01:42:50;;;;;;;3.67;2.95;;;;;;;20.83;50.37;100934.28;5026293;28;20068;-64
2022/06/08 01:45:53;;;;;;;3.95;2.90;;;;;;;20.83;50.72;100926.16;5026167;28;20037;-64
2022/06/08 01:48:36;;;;;;;3.35;2.90;;;;;;;20.82;50.47;100921.78;5042687;28;20506;-64
2022/06/08 01:51:47;;;;;;;3.30;2.75;;;;;;;20.81;50.44;100918.22;5042738;28;20032;-64
2022/06/08 01:54:19;;;;;;;3.92;2.90;;;;;;;20.81;50.76;100915.53;5025191;28;20060;-64
2022/06/08 01:56:47;;;;;;;3.63;2.83;;;;;;;20.80;50.38;100916.56;5023951;28;20101;-64
2022/06/08 01:59:27;;;;;;;3.73;2.90;;;;;;;20.81;50.46;100911.97;5023011;28;20037;-64
2022/06/08 02:01:59;;;;;;;3.42;2.88;;;;;;;20.80;50.50;100913.84;5006510;28;20026;-64
2022/06/08 02:04:42;;;;;;;3.22;2.92;;;;;;;20.81;50.41;100903.88;5006349;28;20503;-62
2022/06/08 02:07:26;;;;;;;2.90;2.58;;;;;;;20.79;50.44;100898.66;5022709;28;20041;-62
2022/06/08 02:10:11;;;;;;;3.45;3.00;;;;;;;20.80;50.32;100894.09;5024132;28;20101;-63
2022/06/08 02:12:43;;;;;;;3.63;3.03;;;;;;;20.79;50.69;100895.97;5025868;28;20057;-63
2022/06/08 02:15:13;;;;;;;3.60;3.00;;;;;;;20.79;50.72;100887.03;5042403;28;20065;-62
2022/06/08 02:17:43;;;;;;;3.15;2.85;;;;;;;20.79;50.37;100895.97;5062235;28;20028;-63
2022/06/08 02:20:11;;;;;;;4.30;2.97;;;;;;;20.78;50.60;100894.28;5108984;28;20054;-63
2022/06/08 02:22:42;;;;;;;3.33;2.83;;;;;;;20.66;50.37;100872.25;5109248;28;20496;-63
2022/06/08 02:25:08;;;;;;;4.10;2.92;;;;;;;20.75;50.22;100889.25;5108491;28;20067;-63
2022/06/08 02:27:41;;;;;;;4.03;3.13;;;;;;;20.77;50.32;100883.66;5108992;28;20086;-64
2022/06/08 02:30:14;;;;;;;3.53;2.83;;;;;;;20.74;50.33;100882.16;5090684;28;20024;-63
2022/06/08 02:35:51;;;;;;;4.47;3.00;;;;;;;20.78;50.34;100878.09;5093372;28;20050;-62
2022/06/08 02:38:21;;;;;;;3.20;2.90;;;;;;;20.62;50.53;100853.88;5090589;28;20165;-63
2022/06/08 02:40:52;;;;;;;3.17;2.88;;;;;;;20.78;50.21;100874.53;5108020;28;20052;-63
2022/06/08 02:43:24;;;;;;;3.95;2.92;;;;;;;20.78;50.65;100877.25;5090407;28;20023;-62
2022/06/08 02:45:57;;;;;;;3.13;2.83;;;;;;;20.76;50.48;100863.91;5090213;28;20028;-63
2022/06/08 02:48:22;;;;;;;3.50;3.00;;;;;;;20.76;50.74;100868.47;5090236;28;20035;-64
2022/06/08 02:50:54;;;;;;;3.40;2.97;;;;;;;20.76;50.40;100852.25;5108524;28;20028;-63
2022/06/08 02:53:19;;;;;;;3.95;3.00;;;;;;;20.76;50.41;100854.94;5120015;28;20024;-64
2022/06/08 02:55:51;;;;;;;4.45;3.50;;;;;;;20.75;50.74;100851.41;5128432;28;20039;-63
2022/06/08 02:58:23;;;;;;;4.07;3.05;;;;;;;20.66;50.41;100825.50;5110531;28;20107;-64
2022/06/08 03:00:52;;;;;;;3.55;3.25;;;;;;;20.75;50.63;100837.06;5110715;28;20388;-64
2022/06/08 03:03:25;;;;;;;4.35;3.22;;;;;;;20.74;50.40;100827.28;5110469;28;20027;-64
2022/06/08 03:05:55;;;;;;;3.60;3.13;;;;;;;20.74;50.79;100824.59;5110306;28;20480;-64
2022/06/08 03:08:23;;;;;;;3.35;3.05;;;;;;;20.74;50.62;100832.69;5128795;28;20028;-64
2022/06/08 03:10:50;;;;;;;3.78;3.22;;;;;;;20.74;50.55;100827.28;5100101;28;20031;-64
2022/06/08 03:13:23;;;;;;;4.80;3.38;;;;;;;20.72;50.48;100828.28;5107876;28;20028;-63
2022/06/08 03:16:10;;;;;;;3.58;3.17;;;;;;;20.71;50.55;100825.78;5089691;28;20091;-63
2022/06/08 03:18:35;;;;;;;2.60;2.40;;;;;;;20.72;50.61;100833.69;5090169;28;20031;-63
2022/06/08 03:21:03;;;;;;;3.00;2.70;;;;;;;20.72;50.30;100828.28;5089875;28;20028;-64
2022/06/08 03:23:29;;;;;;;3.15;2.85;;;;;;;20.66;50.57;100820.09;5107873;28;20039;-64
2022/06/08 03:25:55;;;;;;;3.42;3.00;;;;;;;20.72;50.55;100827.44;5107412;28;20027;-64
2022/06/08 03:28:20;;;;;;;3.30;2.90;;;;;;;20.71;50.47;100823.91;5107452;28;20020;-65
2022/06/08 03:30:46;;;;;;;3.97;3.58;;;;;;;20.71;50.77;100823.91;5107208;28;20032;-64
2022/06/08 03:33:12;;;;;;;5.05;3.55;;;;;;;20.71;50.64;100820.38;5107631;28;20024;-64
2022/06/08 03:35:38;;;;;;;3.72;3.28;;;;;;;20.71;50.76;100814.97;5107551;28;20028;-64
2022/06/08 03:38:04;;;;;;;4.90;3.75;;;;;;;20.70;50.50;100819.53;5107576;28;20024;-63
2022/06/08 03:40:30;;;;;;;4.20;3.50;;;;;;;20.71;50.73;100812.28;5089057;28;20044;-64
2022/06/08 03:42:55;;;;;;;3.53;3.22;;;;;;;20.69;50.74;100817.03;5107579;28;20024;-64
2022/06/08 03:45:21;;;;;;;3.25;2.88;;;;;;;20.71;50.49;100806.88;5107307;28;20031;-64
2022/06/08 03:47:49;;;;;;;3.97;3.58;;;;;;;20.65;50.50;100807.63;5107291;28;20020;-64
2022/06/08 03:50:18;;;;;;;3.42;3.13;;;;;;;20.60;50.43;100791.09;5107386;28;20092;-62
2022/06/08 03:52:45;;;;;;;;;;;;;;;20.71;50.77;100814.97;5107506;28;20089;-62
2022/06/08 03:55:11;;;;;;;3.80;3.45;;;;;;;20.69;50.70;100823.28;5106873;28;19912;-64
2022/06/08 03:57:37;;;;;;;3.22;2.88;;;;;;;20.66;50.68;100814.69;5106961;28;20031;-63
2022/06/08 04:00:04;;;;;;;3.25;2.95;;;;;;;20.69;50.87;100817.03;5107143;28;20032;-63
2022/06/08 04:02:30;;;;;;;3.28;2.97;;;;;;;20.68;50.49;100816.16;5106966;28;20028;-63
2022/06/08 04:04:55;;;;;;;3.20;2.90;;;;;;;20.66;50.64;100812.81;5107121;28;20032;-63
2022/06/08 04:07:21;;;;;;;3.22;2.75;;;;;;;20.68;50.77;100818.03;5106684;28;20031;-63
2022/06/08 04:09:46;;;;;;;3.53;3.22;;;;;;;20.68;50.49;100818.03;5107786;28;20031;-64
2022/06/08 04:12:12;;;;;;;3.47;3.17;;;;;;;20.67;50.72;100822.59;5124549;28;20019;-63
2022/06/08 04:14:37;;;;;;;2.80;2.60;;;;;;;20.67;50.49;100822.59;5088908;28;20051;-63
2022/06/08 04:17:03;;;;;;;4.13;3.22;;;;;;;20.67;50.60;100832.56;5106945;28;20037;-63
2022/06/08 04:19:29;;;;;;;3.78;3.17;;;;;;;20.68;50.54;100821.56;5107485;28;20020;-63
2022/06/08 04:21:54;;;;;;;4.25;3.20;;;;;;;20.69;50.51;100825.13;5106928;28;20111;-63
2022/06/08 04:24:21;;;;;;;3.85;3.42;;;;;;;20.68;50.46;100810.75;5106298;28;20084;-63
2022/06/08 04:26:47;;;;;;;3.47;2.95;;;;;;;20.69;50.72;100823.28;5106665;28;20031;-63
2022/06/08 04:29:13;;;;;;;3.42;2.97;;;;;;;20.65;50.41;100816.56;5106737;28;20051;-63
2022/06/08 04:31:38;;;;;;;3.15;2.85;;;;;;;20.70;50.37;100821.41;5106784;28;20065;-63
2022/06/08 04:34:06;;;;;;;3.25;2.95;;;;;;;20.70;50.80;100822.25;5106673;28;20080;-63
2022/06/08 04:36:34;;;;;;;3.15;2.85;;;;;;;20.70;50.63;100829.50;5106509;28;20028;-63
2022/06/08 04:39:01;;;;;;;3.58;2.88;;;;;;;20.70;50.56;100829.50;5107217;28;20085;-62
2022/06/08 04:41:27;;;;;;;3.10;2.80;;;;;;;20.70;50.16;100832.22;5105514;28;20040;-63
2022/06/08 04:43:53;;;;;;;4.47;3.30;;;;;;;20.70;50.10;100834.91;5121361;28;20052;-63
2022/06/08 04:46:19;;;;;;;4.45;3.83;;;;;;;20.70;50.20;100830.34;5127550;28;20106;-63
2022/06/08 04:48:46;;;;;;;4.10;3.40;;;;;;;20.64;50.55;100814.00;5089913;28;20024;-63
2022/06/08 04:51:13;;;;;;;3.10;2.83;;;;;;;20.71;50.25;100834.72;5106357;28;20024;-63
2022/06/08 04:53:39;;;;;;;3.60;3.28;;;;;;;20.71;50.25;100836.59;5106250;28;20043;-63
2022/06/08 04:56:05;;;;;;;3.70;2.97;;;;;;;20.71;50.15;100842.00;5105736;28;20074;-63
2022/06/08 04:58:31;;;;;;;4.43;3.33;;;;;;;20.70;50.43;100838.44;5106172;28;20034;-63
2022/06/08 05:00:56;;;;;;;4.30;3.72;;;;;;;20.70;50.27;100834.91;5106091;28;20131;-63
2022/06/08 05:03:22;;;;;;;4.15;3.22;;;;;;;20.70;50.62;100829.50;5105551;28;20024;-63
2022/06/08 05:05:47;;;;;;;3.72;3.17;;;;;;;20.64;50.29;100820.25;5087117;28;20024;-62
2022/06/08 05:08:13;;;;;;;4.75;3.78;;;;;;;20.69;50.50;100819.75;5104395;28;20032;-62
2022/06/08 05:10:39;;;;;;;3.90;3.28;;;;;;;20.65;50.13;100815.72;5105549;28;20024;-63
2022/06/08 05:13:06;;;;;;;3.50;3.20;;;;;;;20.69;50.45;100815.16;5105954;28;20016;-63
2022/06/08 05:15:34;;;;;;;3.67;2.83;;;;;;;20.66;50.57;100817.38;5105597;28;20032;-63
2022/06/08 05:18:00;;;;;;;3.72;3.10;;;;;;;20.69;50.25;100817.88;5105748;28;20023;-63
2022/06/08 05:20:26;;;;;;;2.92;2.63;;;;;;;20.56;50.33;100796.03;5105665;28;20035;-64
2022/06/08 05:22:51;;;;;;;4.15;3.17;;;;;;;20.70;50.65;100814.13;5105663;28;20039;-63
2022/06/08 05:25:22;;;;;;;3.38;2.60;;;;;;;20.69;50.55;100814.34;5105196;28;20020;-64
2022/06/08 05:27:48;;;;;;;3.63;2.72;;;;;;;20.71;50.22;100799.59;5105351;28;20020;-63
2022/06/08 05:30:13;;;;;;;3.47;2.90;;;;;;;20.65;50.33;100783.31;5105510;28;20030;-63
2022/06/08 05:32:39;;;;;;;3.20;2.83;;;;;;;20.72;50.53;100800.44;5105419;28;20028;-63
2022/06/08 05:35:05;;;;;;;4.25;3.20;;;;;;;20.72;50.50;100803.97;5105345;28;20035;-63
2022/06/08 05:37:30;;;;;;;3.08;2.78;;;;;;;20.72;50.45;100789.63;5105122;28;20024;-63
2022/06/08 05:39:55;;;;;;;3.33;3.00;;;;;;;20.72;50.57;100793.16;5105003;28;20050;-63
2022/06/08 05:42:21;;;;;;;3.78;2.92;;;;;;;20.72;50.44;100785.06;5105000;28;20039;-62
2022/06/08 05:44:46;;;;;;;3.85;2.70;;;;;;;20.71;50.19;100788.78;5105005;28;20058;-63
2022/06/08 05:47:12;;;;;;;3.75;2.72;;;;;;;20.75;50.23;100785.72;5105032;28;20032;-63
2022/06/08 05:49:37;;;;;;;4.47;3.10;;;;;;;20.74;50.20;100782.19;5105150;28;20035;-62
2022/06/08 05:52:03;;;;;;;3.47;3.00;;;;;;;20.73;50.05;100777.81;5105159;28;20028;-63
2022/06/08 05:54:29;;;;;;;3.22;2.70;;;;;;;20.75;50.49;100783.88;5110224;28;20023;-62
2022/06/08 05:56:54;;;;;;;3.42;3.10;;;;;;;20.76;50.23;100779.28;5111964;28;20120;-63
2022/06/08 05:59:20;;;;;;;2.85;2.60;;;;;;;20.75;50.29;100777.63;5111855;28;20435;-64
2022/06/08 06:01:45;;;;;;;3.30;2.80;;;;;;;20.76;50.19;100773.91;5111770;28;20038;-63
2022/06/08 06:04:10;;;;;;;4.60;3.10;;;;;;;20.75;50.20;100769.53;5112052;28;20530;-63
2022/06/08 06:06:38;;;;;;;4.80;3.38;;;;;;;20.75;50.46;100759.56;5111925;28;20106;-63
2022/06/08 06:09:04;;;;;;;3.63;2.97;;;;;;;20.76;50.55;100763.09;5111894;28;20042;-63
2022/06/08 06:11:29;;;;;;;3.75;3.15;;;;;;;20.69;50.23;100752.19;5127139;28;20035;-64
2022/06/08 06:13:56;;;;;;;3.42;2.88;;;;;;;20.74;50.46;100748.94;5112009;28;20024;-63
2022/06/08 06:16:22;;;;;;;3.63;3.05;;;;;;;20.75;50.28;100764.94;5093626;28;20045;-63
2022/06/08 06:18:47;;;;;;;3.60;2.75;;;;;;;20.74;50.34;100752.47;5111861;28;20024;-63
2022/06/08 06:21:19;;;;;;;3.40;3.10;;;;;;;20.75;50.15;100759.56;5093544;28;20035;-63
2022/06/08 06:23:45;;;;;;;3.53;2.97;;;;;;;20.76;50.09;100753.13;5111676;28;20485;-63
2022/06/08 06:26:10;;;;;;;3.42;3.00;;;;;;;20.75;50.45;100746.03;5111157;28;20050;-63
2022/06/08 06:28:35;;;;;;;3.25;2.90;;;;;;;20.76;50.53;100750.41;5111618;28;20028;-63
2022/06/08 06:31:01;;;;;;;2.95;2.65;;;;;;;20.77;50.27;100746.69;5111790;28;20039;-64
2022/06/08 06:33:27;;;;;;;3.05;2.63;;;;;;;20.57;50.07;100718.53;5111353;28;20032;-63
2022/06/08 06:35:52;;;;;;;3.22;2.67;;;;;;;20.71;50.19;100734.75;5111659;28;20027;-63
2022/06/08 06:38:17;;;;;;;3.05;2.58;;;;;;;20.66;50.24;100726.38;5111347;28;20023;-63
2022/06/08 06:40:42;;;;;;;3.22;2.92;;;;;;;20.77;50.46;100735.03;5111130;28;20631;-64
2022/06/08 06:43:10;;;;;;;4.57;2.97;;;;;;;20.78;50.45;100736.75;5119102;28;20089;-63
2022/06/08 06:45:35;;;;;;;3.28;2.72;;;;;;;20.77;50.19;100729.63;5111466;28;20080;-62
2022/06/08 06:48:00;;;;;;;3.17;2.88;;;;;;;20.78;50.14;100734.03;5111532;28;20031;-63
2022/06/08 06:50:26;;;;;;;3.65;3.00;;;;;;;20.77;50.37;100730.47;5111560;28;20107;-63
2022/06/08 06:52:52;;;;;;;3.47;3.08;;;;;;;20.78;50.39;100734.03;5111399;28;20461;-63
2022/06/08 06:55:29;;;;;;;2.83;2.47;;;;;;;20.79;50.40;100727.59;5111115;28;20049;-63
2022/06/08 06:57:56;;;;;;;3.08;2.78;;;;;;;20.79;50.19;100728.44;5111310;28;20031;-63
2022/06/08 07:00:22;;;;;;;3.55;3.00;;;;;;;20.78;50.15;100721.38;5111212;28;20035;-63
2022/06/08 07:02:48;;;;;;;3.15;2.67;;;;;;;20.80;50.29;100718.47;5111344;28;20028;-63
2022/06/08 07:05:22;;;;;;;3.90;3.47;;;;;;;20.80;50.31;100713.91;5108806;28;20059;-63
2022/06/08 07:07:48;;;;;;;3.63;2.67;;;;;;;20.80;50.44;100715.75;5107855;28;20032;-63
2022/06/08 07:10:14;;;;;;;3.30;3.00;;;;;;;20.80;50.21;100713.91;5112544;28;20031;-63
2022/06/08 07:12:39;;;;;;;3.30;3.00;;;;;;;20.80;50.31;100705.78;5119068;28;20053;-63
2022/06/08 07:15:05;;;;;;;3.72;3.10;;;;;;;20.82;50.73;100719.13;5107974;28;20083;-64
2022/06/08 07:17:31;;;;;;;2.47;2.28;;;;;;;20.81;50.45;100704.75;5107921;28;20456;-61
2022/06/08 07:19:56;;;;;;;3.03;2.53;;;;;;;20.79;50.23;100708.69;5108056;28;20032;-63
2022/06/08 07:22:21;;;;;;;3.92;2.80;;;;;;;20.83;50.50;100707.28;5107842;28;20054;-63
2022/06/08 07:24:47;;;;;;;3.03;2.72;;;;;;;20.81;50.66;100702.06;5107417;28;20028;-63
2022/06/08 07:27:12;;;;;;;4.35;2.63;;;;;;;20.83;50.13;100699.19;5107585;28;20628;-63
2022/06/08 07:29:38;;;;;;;3.30;2.80;;;;;;;20.83;50.64;100694.63;5107769;28;20032;-63
2022/06/08 07:32:04;;;;;;;3.45;2.83;;;;;;;20.83;50.23;100685.69;5107729;28;20062;-63
2022/06/08 07:34:29;;;;;;;3.70;2.80;;;;;;;20.82;50.28;100684.84;5107659;28;20102;-63
2022/06/08 07:36:55;;;;;;;4.32;3.20;;;;;;;20.85;50.63;100686.31;5107538;28;20028;-63
2022/06/08 07:39:22;;;;;;;2.50;2.30;;;;;;;20.85;50.32;100679.03;5107176;28;20039;-63
2022/06/08 07:41:49;;;;;;;3.50;2.67;;;;;;;20.86;50.52;100675.34;5089468;28;20058;-63
2022/06/08 07:44:16;;;;;;;3.85;2.55;;;;;;;20.87;50.65;100673.47;5107564;28;20036;-63
2022/06/08 07:46:41;;;;;;;3.10;2.28;;;;;;;20.85;50.73;100667.41;5107506;28;20035;-63
2022/06/08 07:51:54;;;;;;;3.53;2.85;;;;;;;20.89;50.78;100664.13;5107474;28;20038;-63
2022/06/08 07:54:23;;;;;;;3.05;2.60;;;;;;;20.89;50.44;100661.44;5106756;28;20052;-63
2022/06/08 07:56:51;;;;;;;4.38;2.33;;;;;;;20.90;50.45;100659.59;5107292;28;20082;-63
2022/06/08 07:59:17;;;;;;;2.88;2.35;;;;;;;20.83;50.35;100645.97;5107104;28;20035;-63
2022/06/08 08:01:42;;;;;;;3.80;2.55;;;;;;;20.89;50.70;100649.78;5107200;28;20032;-63
2022/06/08 08:04:07;;;;;;;2.88;2.55;;;;;;;20.90;50.79;100648.78;5106936;28;20059;-63
2022/06/08 08:06:32;;;;;;;2.85;2.58;;;;;;;20.93;50.42;100654.63;5106953;28;20039;-63
2022/06/08 08:09:00;;;;;;;2.45;2.25;;;;;;;20.94;50.62;100656.31;5106959;28;20430;-63
2022/06/08 08:11:26;;;;;;;2.85;2.42;;;;;;;20.90;50.72;100638.81;5103011;28;20043;-63
2022/06/08 08:13:51;;;;;;;3.22;2.42;;;;;;;20.90;50.33;100646.91;5119923;28;20038;-63
2022/06/08 08:16:17;;;;;;;3.05;2.55;;;;;;;20.98;50.57;100654.06;5106622;28;20036;-63
2022/06/08 08:18:42;;;;;;;2.97;2.65;;;;;;;20.90;50.57;100640.66;5088744;28;20139;-63
2022/06/08 08:21:07;;;;;;;2.35;1.90;;;;;;;21.00;50.38;100648.47;5106819;28;20031;-63
2022/06/08 08:23:33;;;;;;;2.97;2.45;;;;;;;20.99;50.38;100658.47;5106934;28;20031;-63
2022/06/08 08:25:58;;;;;;;2.75;2.22;;;;;;;20.99;50.44;100658.47;5106044;28;20066;-63
2022/06/08 08:28:23;;;;;;;2.35;2.15;;;;;;;21.00;50.36;100654.72;5106477;28;20024;-63
2022/06/08 08:30:48;;;;;;;3.00;2.10;;;;;;;21.00;50.47;100651.19;5106757;28;20084;-63
2022/06/08 08:33:14;;;;;;;3.35;2.58;;;;;;;20.76;50.54;100612.63;5106594;28;20488;-63
2022/06/08 08:35:40;;;;;;;4.18;3.00;;;;;;;20.98;50.38;100640.53;5106493;28;20043;-63
2022/06/08 08:38:05;;;;;;;3.45;2.40;;;;;;;21.00;50.64;100653.88;5106354;28;20080;-63
2022/06/08 08:40:34;;;;;;;3.28;2.40;;;;;;;20.99;50.52;100641.41;5118544;28;20488;-63
2022/06/08 08:42:59;;;;;;;2.80;2.35;;;;;;;20.98;50.60;100654.06;5126929;28;20031;-63
2022/06/08 08:45:26;;;;;;;3.58;2.22;;;;;;;20.97;50.55;100641.56;5091321;28;20092;-63
2022/06/08 08:48:05;;;;;;;2.33;2.13;;;;;;;20.97;50.70;100645.09;5108219;28;20480;-63
2022/06/08 08:50:44;;;;;;;2.00;1.80;;;;;;;20.93;50.63;100637.56;5126448;28;20016;-63
2022/06/08 08:53:24;;;;;;;3.78;2.10;;;;;;;20.97;50.88;100634.28;5108443;28;20442;-63
2022/06/08 08:56:11;;;;;;;2.50;2.25;;;;;;;20.95;50.94;100639.06;5107624;28;20053;-63
2022/06/08 08:58:39;;;;;;;2.67;2.08;;;;;;;20.95;50.94;100638.25;5125791;28;20032;-63
2022/06/08 09:01:24;;;;;;;2.90;2.13;;;;;;;20.97;50.95;100628.06;5108217;28;20031;-63
2022/06/08 09:03:59;;;;;;;2.55;1.70;;;;;;;20.97;50.89;100628.06;5108301;28;20087;-63
2022/06/08 09:06:29;;;;;;;2.50;2.13;;;;;;;20.97;50.75;100634.28;5107870;28;20020;-63
2022/06/08 09:09:00;;;;;;;2.58;2.28;;;;;;;20.99;50.83;100619.78;5125850;28;20417;-63
2022/06/08 09:11:34;;;;;;;2.63;2.13;;;;;;;20.98;50.80;100621.63;5120815;28;20027;-63
2022/06/08 09:14:02;;;;;;;1.90;1.70;;;;;;;21.03;50.71;100623.78;5122843;28;20034;-63
2022/06/08 09:16:38;;;;;;;3.13;2.10;;;;;;;21.02;50.69;100612.09;5105606;28;20488;-63
2022/06/08 09:19:23;;;;;;;3.25;2.17;;;;;;;21.05;50.75;100625.25;5088218;28;20024;-63
2022/06/08 09:21:50;;;;;;;3.17;2.20;;;;;;;21.05;50.56;100614.44;5105656;28;20028;-63
2022/06/08 09:24:26;;;;;;;2.05;1.85;;;;;;;21.07;50.45;100611.53;5105733;28;20111;-63
2022/06/08 09:26:54;;;;;;;2.85;2.28;;;;;;;21.08;50.50;100614.06;5119153;28;20042;-63
2022/06/08 09:29:23;;;;;;;2.33;1.95;;;;;;;21.08;50.55;100607.81;5125324;28;20030;-63
2022/06/08 09:31:50;;;;;;;2.40;1.90;;;;;;;21.10;50.90;100603.06;5126012;28;20047;-63
2022/06/08 09:34:21;;;;;;;2.95;1.70;;;;;;;21.08;50.46;100600.56;5126000;28;20069;-63
2022/06/08 09:37:07;;;;;;;2.20;1.83;;;;;;;21.11;50.76;100600.19;5125862;28;20573;-63
2022/06/08 09:39:34;;;;;;;2.00;1.80;;;;;;;21.11;50.62;100599.31;5105087;28;20487;-63
2022/06/08 09:42:05;;;;;;;2.33;1.88;;;;;;;21.09;50.60;100588.69;5125332;28;20110;-63
2022/06/08 09:44:38;;;;;;;2.17;1.75;;;;;;;21.11;50.76;100593.91;5091026;28;20020;-63
2022/06/08 09:53:49;;;;;;;3.45;2.50;;;;;;;21.09;50.43;100588.69;5003255;28;20037;-63
2022/06/08 09:56:17;;;;;;;2.97;2.28;;;;;;;21.09;50.58;100585.16;5002572;28;20030;-63
2022/06/08 09:59:18;;;;;;;2.23;2.03;;;;;;;21.09;50.62;100577.06;5003285;28;20030;-63
2022/06/08 10:01:52;;;;;;;2.08;1.80;;;;;;;21.08;50.84;100576.22;5001092;28;20073;-63
2022/06/08 10:04:26;;;;;;;2.15;1.80;;;;;;;21.08;50.61;100570.81;5003602;28;20044;-63
2022/06/08 10:06:58;;;;;;;2.55;1.95;;;;;;;21.08;50.67;100569.97;5002970;28;20026;-63
2022/06/08 10:09:31;;;;;;;2.45;1.75;;;;;;;21.04;50.75;100566.81;4999271;28;20074;-61
2022/06/08 10:12:25;;;;;;;3.35;1.90;;;;;;;21.05;50.97;100568.50;5002115;28;20034;-63
2022/06/08 10:14:55;;;;;;;2.53;1.80;;;;;;;21.06;50.61;100570.16;5003167;28;20054;-63
2022/06/08 10:17:29;;;;;;;1.95;1.73;;;;;;;21.07;50.72;100571.00;5002951;28;20503;-63
2022/06/08 10:20:34;;;;;;;1.80;1.50;;;;;;;21.06;50.63;100561.22;5003138;28;20042;-63
2022/06/08 10:23:23;;;;;;;2.10;1.75;;;;;;;21.07;50.73;100558.34;4986911;28;20494;-63
2022/06/08 10:25:54;;;;;;;1.92;1.70;;;;;;;21.07;50.61;100561.03;5015679;28;20062;-64
2022/06/08 10:28:29;;;;;;;1.70;1.50;;;;;;;21.08;50.89;100559.16;5104872;28;20024;-63
2022/06/08 10:31:00;;;;;;;2.13;1.65;;;;;;;21.07;50.90;100560.19;5104957;28;20020;-63
2022/06/08 10:33:45;;;;;;;2.17;1.80;;;;;;;21.06;51.00;100556.63;5086846;28;20389;-63
2022/06/08 10:36:10;;;;;;;2.33;1.67;;;;;;;20.99;50.91;100547.63;5104658;28;20028;-63
2022/06/08 10:38:37;;;;;;;1.40;1.30;;;;;;;21.04;51.06;100555.19;5086777;28;20027;-63
2022/06/08 10:44:02;;;;;;;2.38;1.65;;;;;;;21.08;51.10;100564.56;5108639;28;20034;-63
2022/06/08 10:46:43;;;;;;;2.45;1.83;;;;;;;21.08;50.82;100561.88;5108537;28;20024;-64
2022/06/08 10:49:19;;;;;;;1.67;1.42;;;;;;;21.08;50.82;100564.56;5090368;28;20077;-64
2022/06/08 10:51:44;;;;;;;1.55;1.45;;;;;;;21.07;50.77;100569.16;5108533;28;20020;-64
2022/06/08 10:54:55;;;;;;;1.58;1.48;;;;;;;21.08;50.84;100565.41;5107615;28;20057;-64
2022/06/08 10:57:32;;;;;;;2.85;1.40;;;;;;;21.10;51.18;100565.22;5099694;28;20408;-64
2022/06/08 11:00:16;;;;;;;1.55;1.38;;;;;;;21.07;50.92;100561.03;5108324;28;20078;-64
2022/06/08 11:02:43;;;;;;;1.60;1.45;;;;;;;21.06;50.83;100556.63;5108223;28;20023;-63
2022/06/08 11:05:12;;;;;;;2.83;1.70;;;;;;;21.13;51.09;100562.13;5090234;28;20036;-65
2022/06/08 11:07:59;;;;;;;1.67;1.35;;;;;;;21.14;50.86;100561.09;5107872;28;20051;-64
2022/06/08 11:10:54;;;;;;;1.90;1.33;;;;;;;21.14;50.85;100570.03;5108736;28;20054;-63
2022/06/08 11:13:22;;;;;;;1.70;1.40;;;;;;;21.15;50.94;100560.06;5108248;28;20472;-64
2022/06/08 11:16:13;;;;;;;1.80;1.53;;;;;;;21.15;51.12;100558.22;5107945;28;20020;-64
2022/06/08 11:18:43;;;;;;;1.55;1.23;;;;;;;21.16;51.17;100567.16;5107970;28;20012;-64
2022/06/08 11:21:23;;;;;;;3.17;1.73;;;;;;;21.16;50.91;100568.00;5089677;28;20028;-63
2022/06/08 11:23:55;;;;;;;1.90;1.20;;;;;;;21.16;51.22;100564.47;5108056;28;20031;-64
2022/06/08 11:26:23;;;;;;;3.47;1.42;;;;;;;21.15;51.11;100569.03;5107403;28;20027;-64
2022/06/08 11:29:19;;;;;;;1.40;1.30;;;;;;;21.17;51.02;100571.53;5107812;28;20035;-64
2022/06/08 11:31:44;;;;;;;1.80;1.30;;;;;;;21.16;50.96;100567.16;5025091;28;20056;-64
2022/06/08 11:34:21;;;;;;;2.10;1.50;;;;;;;21.18;51.27;100571.31;5025541;28;20081;-64
2022/06/08 11:37:24;;;;;;;2.03;1.38;;;;;;;21.18;51.20;100567.78;5024787;28;20037;-64
2022/06/08 11:39:59;;;;;;;2.08;1.27;;;;;;;21.20;51.15;100563.03;5024632;28;20045;-63
2022/06/08 11:42:24;;;;;;;2.92;1.30;;;;;;;21.20;51.02;100563.03;5025257;28;20469;-64
2022/06/08 11:45:13;;;;;;;1.63;1.10;;;;;;;21.20;51.08;100561.19;5044801;28;20073;-64
2022/06/08 11:47:57;;;;;;;2.60;1.27;;;;;;;21.22;50.96;100566.38;5028471;28;20032;-64
2022/06/08 11:50:25;;;;;;;2.38;1.30;;;;;;;21.22;51.21;100563.69;5044862;28;20033;-63
2022/06/08 11:53:06;;;;;;;2.97;1.60;;;;;;;21.22;51.12;100566.38;5027458;28;20033;-64
2022/06/08 11:55:34;;;;;;;4.03;1.60;;;;;;;21.22;51.02;100569.09;5044244;28;20128;-63